createdAt,value
2022-11-07T00:00:11.556Z,5.13
2022-11-07T00:02:38.385Z,5.35
2022-11-07T00:05:05.394Z,5.43
2022-11-07T00:07:32.342Z,5.57
2022-11-07T00:09:58.900Z,5.80
2022-11-07T00:12:25.521Z,6.45
2022-11-07T00:14:52.164Z,6.10
2022-11-07T00:17:18.805Z,6.05
2022-11-07T00:19:45.396Z,6.00
2022-11-07T00:22:12.162Z,6.97
2022-11-07T00:24:38.801Z,7.13
2022-11-07T00:27:05.511Z,7.13
2022-11-07T00:29:32.208Z,7.13
2022-11-07T00:31:59.806Z,6.43
2022-11-07T00:34:26.409Z,6.28
2022-11-07T00:36:53.113Z,5.95
2022-11-07T00:39:19.736Z,5.55
2022-11-07T00:41:49.479Z,6.30
2022-11-07T00:44:16.476Z,5.00
2022-11-07T00:46:43.069Z,3.40
2022-11-07T00:49:09.745Z,3.63
2022-11-07T00:51:36.417Z,2.95
2022-11-07T00:54:03.823Z,2.35
2022-11-07T00:56:30.695Z,2.80
2022-11-07T00:58:58.159Z,2.58
2022-11-07T01:01:26.250Z,2.80
2022-11-07T01:04:11.662Z,2.78
2022-11-07T01:06:39.223Z,2.53
2022-11-07T01:09:07.571Z,2.40
2022-11-07T01:11:36.345Z,2.88
2022-11-07T01:14:03.390Z,2.45
2022-11-07T01:16:30.671Z,2.70
2022-11-07T01:18:57.346Z,2.85
2022-11-07T01:21:24.025Z,3.50
2022-11-07T01:23:50.583Z,4.05
2022-11-07T01:26:17.542Z,3.60
2022-11-07T01:28:44.173Z,4.45
2022-11-07T01:31:13.007Z,4.85
2022-11-07T01:33:39.693Z,3.63
2022-11-07T01:36:08.860Z,4.38
2022-11-07T01:38:35.997Z,4.88
2022-11-07T01:41:21.088Z,3.83
2022-11-07T01:43:49.940Z,5.03
2022-11-07T01:46:16.847Z,4.32
2022-11-07T01:48:46.983Z,4.05
2022-11-07T01:51:14.289Z,3.80
2022-11-07T01:53:41.304Z,3.50
2022-11-07T01:56:11.129Z,2.58
2022-11-07T01:58:37.785Z,2.45
2022-11-07T02:01:04.966Z,2.60
2022-11-07T02:03:31.556Z,2.42
2022-11-07T02:06:01.720Z,2.00
2022-11-07T02:08:32.960Z,2.38
2022-11-07T02:11:02.205Z,2.20
2022-11-07T02:13:30.379Z,1.95
2022-11-07T02:15:58.831Z,2.00
2022-11-07T02:18:27.290Z,2.10
2022-11-07T02:20:55.585Z,1.75
2022-11-07T02:23:39.760Z,1.58
2022-11-07T02:26:06.591Z,2.25
2022-11-07T02:28:34.546Z,2.10
2022-11-07T02:31:01.168Z,2.20
2022-11-07T02:33:27.804Z,2.13
2022-11-07T02:35:54.547Z,1.77
2022-11-07T02:38:26.671Z,2.25
2022-11-07T02:40:58.127Z,1.58
2022-11-07T02:43:27.068Z,1.80
2022-11-07T02:45:54.497Z,1.50
2022-11-07T02:48:21.342Z,1.70
2022-11-07T02:50:47.936Z,1.67
2022-11-07T02:53:14.704Z,1.77
2022-11-07T02:55:41.516Z,1.92
2022-11-07T02:58:08.105Z,1.85
2022-11-07T03:00:34.655Z,1.65
2022-11-07T03:03:01.279Z,1.60
2022-11-07T03:05:27.951Z,1.70
2022-11-07T03:07:54.522Z,1.80
2022-11-07T03:10:21.116Z,1.90
2022-11-07T03:12:47.760Z,1.50
2022-11-07T03:15:14.521Z,1.60
2022-11-07T03:17:41.803Z,1.67
2022-11-07T03:20:10.199Z,1.77
2022-11-07T03:22:36.818Z,1.70
2022-11-07T03:25:03.745Z,1.70
2022-11-07T03:27:30.419Z,1.63
2022-11-07T03:29:57.049Z,1.73
2022-11-07T03:32:23.764Z,1.73
2022-11-07T03:34:50.385Z,1.88
2022-11-07T03:37:17.310Z,1.95
2022-11-07T03:39:43.926Z,1.75
2022-11-07T03:42:10.564Z,1.73
2022-11-07T03:44:37.221Z,1.90
2022-11-07T03:47:03.854Z,1.45
2022-11-07T03:49:30.374Z,1.85
2022-11-07T03:51:56.955Z,1.80
2022-11-07T03:54:23.528Z,1.63
2022-11-07T03:56:50.085Z,1.50
2022-11-07T03:59:16.654Z,1.35
2022-11-07T04:01:45.087Z,1.20
2022-11-07T04:04:13.055Z,1.35
2022-11-07T04:06:39.716Z,1.40
2022-11-07T04:09:06.645Z,1.58
2022-11-07T04:11:52.171Z,1.30
2022-11-07T04:14:37.502Z,1.50
2022-11-07T04:17:19.117Z,1.63
2022-11-07T04:19:49.486Z,1.60
2022-11-07T04:22:16.398Z,1.55
2022-11-07T04:24:45.976Z,1.60
2022-11-07T04:27:33.093Z,1.40
2022-11-07T04:29:59.846Z,1.40
2022-11-07T04:32:26.435Z,1.42
2022-11-07T04:34:53.019Z,1.73
2022-11-07T04:37:19.686Z,1.50
2022-11-07T04:39:46.339Z,1.30
2022-11-07T04:42:12.947Z,1.45
2022-11-07T04:44:39.539Z,1.58
2022-11-07T04:47:06.117Z,1.30
2022-11-07T04:49:32.757Z,1.70
2022-11-07T04:51:59.353Z,1.42
2022-11-07T04:54:25.973Z,1.63
2022-11-07T04:56:52.608Z,1.83
2022-11-07T04:59:19.249Z,2.00
2022-11-07T05:01:45.872Z,1.88
2022-11-07T05:04:12.527Z,1.88
2022-11-07T05:06:39.287Z,1.40
2022-11-07T05:09:05.942Z,1.60
2022-11-07T05:11:32.553Z,1.38
2022-11-07T05:13:59.147Z,1.40
2022-11-07T05:16:25.927Z,2.20
2022-11-07T05:18:52.512Z,1.50
2022-11-07T05:21:19.148Z,1.30
2022-11-07T05:23:45.773Z,1.70
2022-11-07T05:26:12.397Z,1.50
2022-11-07T05:28:39.911Z,1.40
2022-11-07T05:31:07.302Z,1.08
2022-11-07T05:33:34.257Z,1.13
2022-11-07T05:36:14.546Z,1.25
2022-11-07T05:38:41.826Z,1.52
2022-11-07T05:41:08.602Z,1.80
2022-11-07T05:43:35.334Z,1.50
2022-11-07T05:46:01.964Z,1.50
2022-11-07T05:48:28.706Z,1.50
2022-11-07T05:50:55.331Z,1.45
2022-11-07T05:53:22.112Z,1.55
2022-11-07T05:55:48.950Z,1.40
2022-11-07T05:58:15.601Z,1.67
2022-11-07T06:00:42.294Z,1.70
2022-11-07T06:03:08.976Z,1.73
2022-11-07T06:05:37.459Z,1.70
2022-11-07T06:08:04.232Z,1.52
2022-11-07T06:10:31.082Z,1.95
2022-11-07T06:12:59.563Z,2.35
2022-11-07T06:15:26.920Z,1.98
2022-11-07T06:17:53.449Z,2.42
2022-11-07T06:20:20.175Z,2.10
2022-11-07T06:22:46.807Z,2.88
2022-11-07T06:25:13.466Z,2.33
2022-11-07T06:27:40.056Z,3.25
2022-11-07T06:30:07.080Z,5.70
2022-11-07T06:32:34.573Z,7.28
2022-11-07T06:35:01.179Z,6.85
2022-11-07T06:37:28.316Z,8.32
2022-11-07T06:39:54.887Z,8.13
2022-11-07T06:42:21.532Z,8.10
2022-11-07T06:44:48.126Z,8.05
2022-11-07T06:47:14.688Z,8.98
2022-11-07T06:49:41.300Z,7.25
2022-11-07T06:52:07.894Z,8.35
2022-11-07T06:54:34.548Z,6.03
2022-11-07T06:57:01.168Z,7.35
2022-11-07T06:59:27.763Z,7.15
2022-11-07T07:01:54.562Z,7.15
2022-11-07T07:04:21.199Z,7.32
2022-11-07T07:06:47.815Z,8.65
2022-11-07T07:09:14.423Z,6.60
2022-11-07T07:11:42.723Z,5.35
2022-11-07T07:14:11.769Z,6.68
2022-11-07T07:16:38.623Z,6.65
2022-11-07T07:19:05.281Z,6.82
2022-11-07T07:21:33.138Z,7.57
2022-11-07T07:23:59.821Z,6.97
2022-11-07T07:26:26.418Z,7.50
2022-11-07T07:28:52.990Z,9.38
2022-11-07T07:31:28.922Z,8.60
2022-11-07T07:33:56.088Z,8.57
2022-11-07T07:36:23.089Z,8.15
2022-11-07T07:38:50.282Z,8.38
2022-11-07T07:41:17.277Z,8.73
2022-11-07T07:43:44.109Z,10.13
2022-11-07T07:46:13.486Z,8.45
2022-11-07T07:48:40.089Z,9.68
2022-11-07T07:51:06.998Z,9.38
2022-11-07T07:53:33.656Z,9.50
2022-11-07T07:56:00.689Z,8.93
2022-11-07T07:58:27.427Z,8.35
2022-11-07T08:00:54.704Z,9.20
2022-11-07T08:03:21.383Z,9.07
2022-11-07T08:05:52.608Z,9.50
2022-11-07T08:08:19.237Z,9.55
2022-11-07T08:10:46.053Z,9.25
2022-11-07T08:13:12.620Z,9.02
2022-11-07T08:15:39.271Z,9.30
2022-11-07T08:18:05.906Z,8.65
2022-11-07T08:20:32.544Z,8.65
2022-11-07T08:23:09.869Z,10.05
2022-11-07T08:25:41.390Z,9.48
2022-11-07T08:28:08.718Z,8.98
2022-11-07T08:30:35.803Z,8.70
2022-11-07T08:33:03.299Z,8.57
2022-11-07T08:35:30.418Z,8.43
2022-11-07T08:37:57.580Z,9.23
2022-11-07T08:40:24.324Z,9.65
2022-11-07T08:42:50.995Z,9.38
2022-11-07T08:45:17.659Z,7.80
2022-11-07T08:47:44.277Z,7.93
2022-11-07T08:50:10.890Z,8.18
2022-11-07T08:52:37.502Z,8.05
2022-11-07T08:55:04.321Z,7.45
2022-11-07T08:57:30.944Z,7.50
2022-11-07T08:59:57.547Z,7.30
2022-11-07T09:03:12.481Z,7.70
2022-11-07T09:05:10.877Z,8.02
2022-11-07T09:07:38.382Z,7.78
2022-11-07T09:10:05.151Z,7.82
2022-11-07T09:12:31.746Z,6.75
2022-11-07T09:14:58.320Z,6.72
2022-11-07T09:17:24.971Z,7.10
2022-11-07T09:19:52.818Z,7.88
2022-11-07T09:22:19.391Z,7.30
2022-11-07T09:24:46.030Z,7.20
2022-11-07T09:27:12.714Z,6.88
2022-11-07T09:29:40.345Z,6.82
2022-11-07T09:32:30.504Z,8.10
2022-11-07T09:34:59.289Z,8.35
2022-11-07T09:37:28.647Z,7.35
2022-11-07T09:39:55.293Z,7.30
2022-11-07T09:42:34.133Z,9.13
2022-11-07T09:45:01.416Z,8.43
2022-11-07T09:47:28.025Z,8.93
2022-11-07T09:49:59.292Z,8.65
2022-11-07T09:52:29.800Z,8.43
2022-11-07T09:55:01.535Z,8.57
2022-11-07T09:57:29.728Z,7.88
2022-11-07T10:00:01.737Z,8.07
2022-11-07T10:02:31.961Z,7.45
2022-11-07T10:05:01.021Z,7.70
2022-11-07T10:07:30.709Z,8.02
2022-11-07T10:10:10.709Z,8.38
2022-11-07T10:12:46.608Z,7.78
2022-11-07T10:15:27.731Z,8.02
2022-11-07T10:17:54.404Z,8.20
2022-11-07T10:20:32.054Z,7.47
2022-11-07T10:23:05.070Z,7.18
2022-11-07T10:25:37.554Z,6.05
2022-11-07T10:28:07.246Z,6.20
2022-11-07T10:30:34.502Z,6.43
2022-11-07T10:33:17.747Z,5.55
2022-11-07T10:35:46.972Z,5.40
2022-11-07T10:38:22.500Z,4.88
2022-11-07T10:40:50.336Z,4.10
2022-11-07T10:43:37.224Z,4.45
2022-11-07T10:46:05.399Z,5.70
2022-11-07T10:48:33.207Z,4.80
2022-11-07T10:50:59.904Z,4.22
2022-11-07T10:53:26.986Z,3.80
2022-11-07T10:55:54.501Z,2.90
2022-11-07T10:58:28.531Z,3.20
2022-11-07T11:01:01.256Z,2.90
2022-11-07T11:03:43.234Z,2.28
2022-11-07T11:06:11.002Z,2.03
2022-11-07T11:08:38.012Z,1.95
2022-11-07T11:11:37.423Z,2.25
2022-11-07T11:14:11.200Z,1.20
2022-11-07T11:16:40.162Z,2.03
2022-11-07T11:19:16.561Z,1.55
2022-11-07T11:21:47.173Z,1.40
2022-11-07T11:24:18.044Z,1.70
2022-11-07T11:26:46.190Z,1.90
2022-11-07T11:29:19.438Z,1.90
2022-11-07T11:31:49.024Z,1.58
2022-11-07T11:34:15.606Z,1.30
2022-11-07T11:36:45.935Z,1.63
2022-11-07T11:39:38.934Z,1.48
2022-11-07T11:42:06.161Z,1.73
2022-11-07T11:44:38.508Z,1.40
2022-11-07T11:47:10.038Z,1.50
2022-11-07T11:49:41.483Z,1.55
2022-11-07T11:52:19.746Z,1.52
2022-11-07T11:54:46.938Z,1.45
2022-11-07T11:57:18.073Z,1.90
2022-11-07T12:00:03.440Z,1.73
2022-11-07T12:02:37.269Z,1.63
2022-11-07T12:05:03.975Z,1.75
2022-11-07T12:07:30.544Z,1.30
2022-11-07T12:10:00.893Z,1.80
2022-11-07T12:12:30.310Z,1.80
2022-11-07T12:15:16.524Z,1.30
2022-11-07T12:18:00.021Z,1.60
2022-11-07T12:20:46.434Z,1.55
2022-11-07T12:23:25.045Z,1.63
2022-11-07T12:25:57.607Z,1.30
2022-11-07T12:28:30.166Z,1.20
2022-11-07T12:31:15.602Z,1.38
2022-11-07T12:33:44.948Z,1.75
2022-11-07T12:36:20.941Z,1.15
2022-11-07T12:39:00.210Z,2.08
2022-11-07T12:41:44.428Z,1.15
2022-11-07T12:44:21.223Z,1.05
2022-11-07T12:46:55.191Z,1.05
2022-11-07T12:49:24.833Z,1.10
2022-11-07T12:52:00.367Z,1.40
2022-11-07T12:54:33.154Z,1.42
2022-11-07T12:57:02.557Z,1.33
2022-11-07T12:59:31.206Z,0.93
2022-11-07T13:02:01.073Z,1.20
2022-11-07T13:04:36.251Z,1.02
2022-11-07T13:07:08.620Z,0.93
2022-11-07T13:09:50.113Z,0.90
2022-11-07T13:12:16.712Z,1.10
2022-11-07T13:14:44.222Z,1.00
2022-11-07T13:17:16.088Z,0.98
2022-11-07T13:19:46.778Z,0.80
2022-11-07T13:22:13.336Z,1.23
2022-11-07T13:24:49.903Z,0.85
2022-11-07T13:27:23.695Z,0.77
2022-11-07T13:29:50.637Z,1.52
2022-11-07T13:32:17.549Z,0.85
2022-11-07T13:34:50.067Z,1.00
2022-11-07T13:37:19.074Z,1.00
2022-11-07T13:39:46.571Z,1.35
2022-11-07T13:42:15.971Z,0.90
2022-11-07T13:44:43.630Z,0.70
2022-11-07T13:47:13.471Z,1.17
2022-11-07T13:49:45.285Z,0.95
2022-11-07T13:52:17.525Z,0.90
2022-11-07T13:54:57.231Z,0.77
2022-11-07T13:57:27.756Z,0.80
2022-11-07T13:59:57.483Z,0.90
2022-11-07T14:02:25.599Z,0.82
2022-11-07T14:05:19.763Z,0.88
2022-11-07T14:07:46.971Z,1.00
2022-11-07T14:10:19.240Z,1.00
2022-11-07T14:12:45.862Z,1.00
2022-11-07T14:15:16.616Z,1.08
2022-11-07T14:17:43.982Z,1.10
2022-11-07T14:20:16.996Z,0.80
2022-11-07T14:22:56.921Z,1.00
2022-11-07T14:25:25.184Z,0.80
2022-11-07T14:27:51.913Z,0.95
2022-11-07T14:30:19.932Z,0.90
2022-11-07T14:32:50.470Z,0.73
2022-11-07T14:35:21.945Z,1.02
2022-11-07T14:37:48.688Z,0.95
2022-11-07T14:40:15.310Z,1.13
2022-11-07T14:42:42.639Z,1.00
2022-11-07T14:45:13.528Z,0.80
2022-11-07T14:47:40.295Z,0.70
2022-11-07T14:50:07.422Z,0.90
2022-11-07T14:52:40.647Z,0.80
2022-11-07T14:55:33.293Z,1.20
2022-11-07T14:58:01.487Z,0.70
2022-11-07T15:00:28.441Z,0.88
2022-11-07T15:02:56.372Z,1.13
2022-11-07T15:05:26.924Z,1.00
2022-11-07T15:07:55.234Z,0.80
2022-11-07T15:10:25.132Z,1.00
2022-11-07T15:12:53.029Z,1.20
2022-11-07T15:15:20.993Z,0.80
2022-11-07T15:17:52.348Z,1.10
2022-11-07T15:20:19.040Z,1.00
2022-11-07T15:22:45.670Z,0.73
2022-11-07T15:25:31.064Z,1.00
2022-11-07T15:27:57.753Z,0.90
2022-11-07T15:30:32.275Z,1.23
2022-11-07T15:32:59.633Z,1.13
2022-11-07T15:38:21.180Z,0.90
2022-11-07T15:40:48.358Z,1.27
2022-11-07T15:43:14.999Z,1.00
2022-11-07T15:45:42.130Z,0.80
2022-11-07T15:48:09.277Z,0.85
2022-11-07T15:50:41.060Z,0.80
2022-11-07T15:53:29.062Z,0.88
2022-11-07T15:55:58.166Z,0.70
2022-11-07T15:58:26.045Z,1.13
2022-11-07T16:00:53.258Z,0.80
2022-11-07T16:03:24.237Z,0.90
2022-11-07T16:05:51.971Z,1.02
2022-11-07T16:08:22.900Z,0.80
2022-11-07T16:10:51.091Z,1.00
2022-11-07T16:13:17.678Z,0.95
2022-11-07T16:15:46.442Z,1.23
2022-11-07T16:18:15.386Z,1.15
2022-11-07T16:20:42.414Z,1.10
2022-11-07T16:23:09.676Z,1.10
2022-11-07T16:25:37.350Z,0.93
2022-11-07T16:28:04.241Z,1.00
2022-11-07T16:30:31.096Z,0.68
2022-11-07T16:32:57.752Z,1.00
2022-11-07T16:35:24.351Z,0.90
2022-11-07T16:37:51.019Z,0.85
2022-11-07T16:40:19.239Z,0.80
2022-11-07T16:42:45.869Z,1.10
2022-11-07T16:45:16.722Z,0.85
2022-11-07T16:47:46.386Z,0.98
2022-11-07T16:50:14.333Z,0.80
2022-11-07T16:52:40.970Z,1.20
2022-11-07T16:55:07.920Z,1.13
2022-11-07T16:57:36.097Z,0.65
2022-11-07T17:00:04.506Z,0.70
2022-11-07T17:02:31.234Z,0.75
2022-11-07T17:04:58.074Z,1.02
2022-11-07T17:07:24.767Z,0.75
2022-11-07T17:09:51.438Z,0.95
2022-11-07T17:12:20.264Z,1.05
2022-11-07T17:14:47.341Z,0.93
2022-11-07T17:17:14.895Z,1.40
2022-11-07T17:19:41.861Z,1.20
2022-11-07T17:22:09.041Z,1.40
2022-11-07T17:24:35.706Z,1.35
2022-11-07T17:27:02.655Z,4.60
2022-11-07T17:29:29.313Z,2.40
2022-11-07T17:31:55.973Z,4.85
2022-11-07T17:34:22.920Z,4.25
2022-11-07T17:36:51.311Z,3.00
2022-11-07T17:39:19.437Z,1.77
2022-11-07T17:41:47.258Z,2.42
2022-11-07T17:44:14.353Z,1.50
2022-11-07T17:46:42.000Z,1.13
2022-11-07T17:49:10.344Z,5.22
2022-11-07T17:51:36.987Z,2.17
2022-11-07T17:54:04.287Z,1.30
2022-11-07T17:56:32.035Z,1.20
2022-11-07T17:59:00.005Z,1.30
2022-11-07T18:01:28.164Z,0.90
2022-11-07T18:03:55.072Z,1.13
2022-11-07T18:06:23.403Z,1.90
2022-11-07T18:08:52.622Z,5.07
2022-11-07T18:11:20.539Z,1.80
2022-11-07T18:13:49.929Z,3.17
2022-11-07T18:16:20.988Z,1.40
2022-11-07T18:18:47.617Z,3.72
2022-11-07T18:21:14.230Z,9.82
2022-11-07T18:23:41.271Z,10.20
2022-11-07T18:26:09.270Z,3.45
2022-11-07T18:28:37.014Z,14.80
2022-11-07T18:31:03.671Z,8.63
2022-11-07T18:33:30.475Z,4.57
2022-11-07T18:35:58.320Z,3.70
2022-11-07T18:38:25.357Z,2.05
2022-11-07T18:40:59.397Z,1.90
2022-11-07T18:43:26.043Z,2.13
2022-11-07T18:45:53.093Z,2.33
2022-11-07T18:48:19.710Z,4.05
2022-11-07T18:50:46.364Z,2.00
2022-11-07T18:53:13.119Z,1.73
2022-11-07T18:55:39.936Z,2.30
2022-11-07T18:58:06.702Z,1.77
2022-11-07T19:00:33.566Z,2.58
2022-11-07T19:03:00.307Z,2.00
2022-11-07T19:05:27.560Z,3.35
2022-11-07T19:07:54.205Z,7.57
2022-11-07T19:10:20.897Z,4.40
2022-11-07T19:12:47.605Z,3.60
2022-11-07T19:15:14.208Z,2.50
2022-11-07T19:17:40.889Z,1.92
2022-11-07T19:20:07.901Z,1.40
2022-11-07T19:22:34.665Z,1.98
2022-11-07T19:25:01.320Z,1.77
2022-11-07T19:27:29.587Z,1.77
2022-11-07T19:29:56.622Z,1.20
2022-11-07T19:32:23.244Z,1.38
2022-11-07T19:34:49.886Z,1.40
2022-11-07T19:37:16.634Z,1.40
2022-11-07T19:39:43.326Z,1.40
2022-11-07T19:42:09.965Z,1.50
2022-11-07T19:44:36.596Z,1.02
2022-11-07T19:47:03.205Z,1.10
2022-11-07T19:49:29.853Z,1.00
2022-11-07T19:51:56.495Z,1.52
2022-11-07T19:54:23.030Z,1.15
2022-11-07T19:56:53.241Z,0.90
2022-11-07T19:59:23.736Z,1.20
2022-11-07T20:02:10.554Z,1.27
2022-11-07T20:04:36.922Z,1.40
2022-11-07T20:07:03.659Z,1.50
2022-11-07T20:09:30.326Z,1.92
2022-11-07T20:11:56.933Z,1.70
2022-11-07T20:14:23.724Z,1.75
2022-11-07T20:16:50.298Z,1.80
2022-11-07T20:19:16.904Z,1.60
2022-11-07T20:21:43.592Z,1.58
2022-11-07T20:24:10.173Z,1.27
2022-11-07T20:26:38.497Z,1.42
2022-11-07T20:29:05.376Z,1.52
2022-11-07T20:31:33.345Z,1.77
2022-11-07T20:34:01.139Z,1.63
2022-11-07T20:36:28.248Z,1.48
2022-11-07T20:38:55.544Z,1.77
2022-11-07T20:41:23.678Z,1.50
2022-11-07T20:43:54.516Z,2.20
2022-11-07T20:46:21.110Z,2.00
2022-11-07T20:48:48.318Z,1.70
2022-11-07T20:51:20.074Z,1.60
2022-11-07T20:53:50.129Z,1.60
2022-11-07T20:56:18.112Z,1.77
2022-11-07T20:58:45.178Z,1.67
2022-11-07T21:01:13.694Z,1.40
2022-11-07T21:03:40.797Z,1.65
2022-11-07T21:06:11.428Z,2.05
2022-11-07T21:08:39.038Z,1.60
2022-11-07T21:11:07.160Z,2.25
2022-11-07T21:13:34.596Z,1.33
2022-11-07T21:16:01.569Z,1.98
2022-11-07T21:18:28.205Z,2.30
2022-11-07T21:20:55.020Z,1.95
2022-11-07T21:23:21.787Z,1.80
2022-11-07T21:25:48.552Z,1.90
2022-11-07T21:28:17.130Z,1.50
2022-11-07T21:30:45.214Z,2.13
2022-11-07T21:33:12.214Z,1.50
2022-11-07T21:35:42.255Z,1.80
2022-11-07T21:38:08.857Z,1.63
2022-11-07T21:40:36.049Z,2.25
2022-11-07T21:43:03.545Z,1.75
2022-11-07T21:45:30.171Z,1.90
2022-11-07T21:47:56.764Z,2.28
2022-11-07T21:50:43.667Z,1.92
2022-11-07T21:53:10.074Z,2.03
2022-11-07T21:55:36.722Z,1.98
2022-11-07T21:58:03.321Z,1.85
2022-11-07T22:00:34.760Z,1.80
2022-11-07T22:03:03.074Z,2.15
2022-11-07T22:05:29.717Z,1.80
2022-11-07T22:07:56.755Z,2.75
2022-11-07T22:10:23.350Z,1.95
2022-11-07T22:12:52.361Z,2.40
2022-11-07T22:15:18.965Z,1.98
2022-11-07T22:17:45.563Z,2.40
2022-11-07T22:20:12.414Z,2.30
2022-11-07T22:22:39.000Z,2.10
2022-11-07T22:25:06.483Z,2.72
2022-11-07T22:27:33.135Z,2.33
2022-11-07T22:29:59.697Z,2.40
2022-11-07T22:32:26.321Z,2.70
2022-11-07T22:34:52.915Z,2.35
2022-11-07T22:37:19.551Z,2.75
2022-11-07T22:39:46.179Z,2.47
2022-11-07T22:42:12.837Z,3.40
2022-11-07T22:44:39.426Z,2.78
2022-11-07T22:47:06.005Z,2.63
2022-11-07T22:49:32.708Z,4.35
2022-11-07T22:51:59.344Z,2.60
2022-11-07T22:54:25.986Z,2.80
2022-11-07T22:56:52.547Z,2.67
2022-11-07T22:59:19.152Z,2.53
2022-11-07T23:01:45.821Z,2.15
2022-11-07T23:04:16.208Z,2.38
2022-11-07T23:06:42.804Z,3.03
2022-11-07T23:09:11.832Z,2.88
2022-11-07T23:11:47.557Z,2.40
2022-11-07T23:14:16.587Z,2.30
2022-11-07T23:16:44.727Z,2.90
2022-11-07T23:19:12.554Z,2.72
2022-11-07T23:21:39.261Z,2.80
2022-11-07T23:24:06.092Z,2.90
2022-11-07T23:26:35.999Z,2.90
2022-11-07T23:29:10.776Z,2.85
2022-11-07T23:31:41.735Z,2.90
2022-11-07T23:34:08.483Z,3.30
2022-11-07T23:36:35.318Z,2.78
2022-11-07T23:39:06.326Z,3.28
2022-11-07T23:41:33.493Z,2.80
2022-11-07T23:44:00.153Z,3.50
2022-11-07T23:46:45.594Z,3.08
2022-11-07T23:49:30.980Z,3.45
2022-11-07T23:51:57.603Z,3.35
2022-11-07T23:54:42.910Z,3.42
2022-11-07T23:57:09.522Z,3.92
2022-11-07T23:59:54.521Z,3.50
